Time;durP1;ratioP1;P1;durP2;ratioP2;P2;SDS_P1;SDS_P2;PMS_P1;PMS_P2;Temp;Humidity;BMP_temperature;BMP_pressure;BME280_temperature;BME280_humidity;BME280_pressure;Samples;Min_cycle;Max_cycle;Signal;HPM_P1;HPM_P2
2024/04/03 00:01:22;;;;;;;6.33;2.00;;;;;;;6.45;100.00;96863.78;5106780;28;20495;-77
2024/04/03 00:03:48;;;;;;;9.57;2.38;;;;;;;6.48;100.00;96854.63;5113811;28;20441;-77
2024/04/03 00:06:15;;;;;;;8.07;2.10;;;;;;;6.46;100.00;96852.25;5093576;28;20448;-76
2024/04/03 00:08:41;;;;;;;6.63;2.35;;;;;;;6.48;100.00;96847.53;5093186;28;20437;-77
2024/04/03 00:11:08;;;;;;;6.13;1.80;;;;;;;6.49;100.00;96843.06;5093233;28;20466;-77
2024/04/03 00:13:35;;;;;;;4.88;2.08;;;;;;;6.50;100.00;96842.03;5093093;28;20433;-77
2024/04/03 00:16:01;;;;;;;7.63;2.40;;;;;;;6.50;100.00;96832.31;5093041;28;20791;-77
2024/04/03 00:18:27;;;;;;;7.57;2.20;;;;;;;6.53;100.00;96828.44;5093232;28;20386;-77
2024/04/03 00:21:00;;;;;;;6.93;2.20;;;;;;;6.53;100.00;96831.84;5102377;28;20438;-78
2024/04/03 00:23:26;;;;;;;3.00;1.95;;;;;;;6.54;100.00;96830.78;5099717;28;20437;-77
2024/04/03 00:25:55;;;;;;;4.43;2.30;;;;;;;6.56;100.00;96834.00;5093170;28;20409;-77
2024/04/03 00:28:23;;;;;;;6.65;2.03;;;;;;;6.58;100.00;96817.97;5082309;28;20763;-77
2024/04/03 00:30:49;;;;;;;5.88;2.13;;;;;;;6.60;100.00;96816.72;5101463;28;20745;-77
2024/04/03 00:33:16;;;;;;;4.15;1.80;;;;;;;6.66;100.00;96812.31;5092730;28;20890;-78
2024/04/03 00:35:43;;;;;;;7.13;2.40;;;;;;;6.71;100.00;96817.66;5109227;28;20753;-78
2024/04/03 00:38:09;;;;;;;4.32;2.10;;;;;;;6.73;100.00;96805.06;5113544;28;20396;-78
2024/04/03 00:40:35;;;;;;;5.70;2.50;;;;;;;6.75;100.00;96803.00;5098533;28;20435;-78
2024/04/03 00:43:11;;;;;;;8.38;1.75;;;;;;;6.77;100.00;96806.16;5093200;28;20766;-78
2024/04/03 00:45:39;;;;;;;5.65;1.90;;;;;;;6.73;100.00;96796.38;5099949;28;20880;-77
2024/04/03 00:48:06;;;;;;;3.20;1.87;;;;;;;6.73;100.00;96810.31;5113878;28;20813;-77
2024/04/03 00:50:32;;;;;;;5.50;1.95;;;;;;;6.73;100.00;96797.19;5114044;28;20422;-77
2024/04/03 00:52:59;;;;;;;6.07;2.28;;;;;;;6.74;100.00;96801.41;5102987;28;20895;-78
2024/04/03 00:55:25;;;;;;;6.30;2.40;;;;;;;6.78;100.00;96796.44;5098093;28;20932;-77
2024/04/03 00:57:52;;;;;;;4.82;2.17;;;;;;;6.79;100.00;96790.94;5109168;28;20555;-77
2024/04/03 01:00:18;;;;;;;5.05;1.80;;;;;;;6.80;100.00;96789.91;5101750;28;20394;-77
2024/04/03 01:02:46;;;;;;;5.97;2.60;;;;;;;6.73;100.00;96791.13;5092536;28;20436;-77
2024/04/03 01:05:12;;;;;;;4.88;2.30;;;;;;;6.72;100.00;96792.94;5104358;28;20829;-78
2024/04/03 01:07:38;;;;;;;5.65;2.10;;;;;;;6.74;100.00;96792.72;5094549;28;20897;-77
2024/04/03 01:10:05;;;;;;;8.77;2.10;;;;;;;6.74;100.00;96782.19;5084283;28;20406;-78
2024/04/03 01:12:33;;;;;;;4.68;1.92;;;;;;;6.76;100.00;96782.75;5092937;28;20402;-78
2024/04/03 01:14:59;;;;;;;5.20;2.20;;;;;;;6.79;100.00;96780.44;5092729;28;20394;-77
2024/04/03 01:17:26;;;;;;;5.53;2.33;;;;;;;6.84;100.00;96777.09;5098628;28;20873;-78
2024/04/03 01:19:54;;;;;;;4.90;1.95;;;;;;;6.89;100.00;96777.94;5115492;28;20388;-77
2024/04/03 01:22:20;;;;;;;4.63;1.90;;;;;;;6.93;100.00;96772.97;5110087;28;20417;-77
2024/04/03 01:24:47;;;;;;;6.32;2.20;;;;;;;6.88;100.00;96757.13;5100665;28;20424;-78
2024/04/03 01:27:13;;;;;;;3.42;1.70;;;;;;;6.90;100.00;96753.22;5112545;28;20461;-78
2024/04/03 01:29:40;;;;;;;5.10;1.80;;;;;;;6.90;100.00;96755.88;5112801;28;20397;-78
2024/04/03 01:32:06;;;;;;;6.57;2.55;;;;;;;6.90;100.00;96761.13;5104005;28;20398;-78
2024/04/03 01:34:33;;;;;;;7.60;1.92;;;;;;;6.85;100.00;96752.34;5097696;28;20430;-78
2024/04/03 01:36:59;;;;;;;2.40;1.67;;;;;;;6.86;100.00;96756.56;5092240;28;20447;-78
2024/04/03 01:39:27;;;;;;;5.03;1.83;;;;;;;6.82;100.00;96751.03;5097518;28;20429;-77
2024/04/03 01:41:54;;;;;;;3.97;1.90;;;;;;;6.78;100.00;96749.91;5103761;28;20433;-78
2024/04/03 01:44:20;;;;;;;3.92;1.85;;;;;;;6.71;100.00;96746.63;5092503;28;20452;-77
2024/04/03 01:46:46;;;;;;;4.90;1.90;;;;;;;6.66;100.00;96743.94;5100579;28;20803;-78
2024/04/03 01:49:13;;;;;;;4.00;1.75;;;;;;;6.61;100.00;96738.63;5091753;28;20477;-78
2024/04/03 01:51:39;;;;;;;4.67;1.67;;;;;;;6.58;100.00;96746.97;5092106;28;20445;-78
2024/04/03 01:54:06;;;;;;;3.58;1.83;;;;;;;6.55;100.00;96747.44;5092254;28;20394;-77
2024/04/03 01:56:32;;;;;;;5.53;1.90;;;;;;;6.54;100.00;96751.16;5097679;28;20392;-77
2024/04/03 01:59:00;;;;;;;10.60;2.10;;;;;;;6.52;100.00;96748.75;5103113;28;20422;-78
2024/04/03 02:01:26;;;;;;;6.22;2.50;;;;;;;6.50;100.00;96748.19;5105843;28;20420;-77
2024/04/03 02:03:52;;;;;;;6.45;1.70;;;;;;;6.51;100.00;96759.50;5112045;28;20521;-78
2024/04/03 02:06:19;;;;;;;3.03;1.63;;;;;;;6.47;100.00;96753.91;5112180;28;20384;-78
2024/04/03 02:08:45;;;;;;;12.33;2.63;;;;;;;6.46;100.00;96751.53;5112511;28;20395;-77
2024/04/03 02:11:11;;;;;;;4.18;2.30;;;;;;;6.47;100.00;96747.84;5092375;28;20412;-78
2024/04/03 02:13:37;;;;;;;3.23;1.60;;;;;;;6.50;100.00;96739.50;5091978;28;20405;-78
2024/04/03 02:16:05;;;;;;;3.75;1.88;;;;;;;6.49;100.00;96738.69;5100081;28;20393;-77
2024/04/03 02:18:31;;;;;;;4.65;1.80;;;;;;;6.51;100.00;96733.22;5091871;28;20390;-77
2024/04/03 02:20:57;;;;;;;7.03;2.30;;;;;;;6.55;100.00;96729.84;5100326;28;20393;-78
2024/04/03 02:23:23;;;;;;;6.57;2.00;;;;;;;6.63;100.00;96726.00;5092313;28;20390;-77
2024/04/03 02:25:49;;;;;;;2.80;1.90;;;;;;;6.71;100.00;96730.06;5091815;28;20496;-77
2024/04/03 02:28:15;;;;;;;6.22;1.83;;;;;;;6.75;100.00;96729.34;5103979;28;21094;-77
2024/04/03 02:30:42;;;;;;;3.72;1.63;;;;;;;6.80;100.00;96720.72;5115120;28;20427;-77
2024/04/03 02:33:10;;;;;;;4.75;1.80;;;;;;;6.86;100.00;96717.13;5113040;28;20432;-78
2024/04/03 02:35:36;;;;;;;4.80;2.20;;;;;;;6.91;100.00;96710.09;5095632;28;20394;-77
2024/04/03 02:38:03;;;;;;;5.07;1.75;;;;;;;6.95;100.00;96707.75;5113026;28;20392;-77
2024/04/03 02:40:29;;;;;;;3.60;1.80;;;;;;;6.99;100.00;96712.28;5096295;28;20547;-77
2024/04/03 02:42:55;;;;;;;2.60;1.42;;;;;;;6.97;100.00;96703.88;5096649;28;20420;-77
2024/04/03 02:45:21;;;;;;;2.28;1.60;;;;;;;7.00;100.00;96702.56;5098580;28;20469;-77
2024/04/03 02:47:48;;;;;;;3.42;1.55;;;;;;;7.00;100.00;96694.66;5116233;28;20664;-76
2024/04/03 02:50:15;;;;;;;3.95;1.63;;;;;;;6.99;100.00;96704.38;5090620;28;20390;-77
2024/04/03 02:52:41;;;;;;;5.55;1.80;;;;;;;6.97;100.00;96703.06;5103215;28;20756;-78
2024/04/03 02:55:08;;;;;;;4.53;1.45;;;;;;;6.95;100.00;96697.25;5096320;28;20390;-78
2024/04/03 02:57:34;;;;;;;4.97;2.17;;;;;;;6.96;100.00;96691.75;5095840;28;20570;-77
2024/04/03 03:00:00;;;;;;;6.10;1.87;;;;;;;7.03;100.00;96686.28;5104515;28;20445;-77
2024/04/03 03:02:26;;;;;;;7.10;2.10;;;;;;;7.08;100.00;96696.06;5099055;28;20862;-78
2024/04/03 03:04:52;;;;;;;4.88;1.60;;;;;;;7.06;100.00;96679.75;5095696;28;20425;-78
2024/04/03 03:07:20;;;;;;;7.22;1.52;;;;;;;7.09;100.00;96681.88;5099669;28;20415;-78
2024/04/03 03:09:46;;;;;;;3.83;1.50;;;;;;;7.15;100.00;96676.41;5107874;28;20400;-78
2024/04/03 03:12:12;;;;;;;2.83;1.60;;;;;;;7.17;100.00;96673.56;5095189;28;20448;-78
2024/04/03 03:14:38;;;;;;;3.20;1.50;;;;;;;7.19;100.00;96664.38;5095203;28;20398;-78
2024/04/03 03:17:04;;;;;;;2.97;1.70;;;;;;;7.21;100.00;96654.41;5097532;28;20474;-78
2024/04/03 03:19:31;;;;;;;4.82;1.73;;;;;;;7.24;100.00;96661.00;5116064;28;20388;-77
2024/04/03 03:21:57;;;;;;;5.13;1.70;;;;;;;7.20;100.00;96644.91;5114662;28;20404;-77
2024/04/03 03:24:24;;;;;;;4.15;1.85;;;;;;;7.26;100.00;96643.13;5099748;28;20471;-78
2024/04/03 03:26:51;;;;;;;5.63;2.00;;;;;;;7.22;100.00;96645.44;5115655;28;20384;-77
2024/04/03 03:29:17;;;;;;;4.95;2.03;;;;;;;7.26;100.00;96632.59;5115518;28;20398;-78
2024/04/03 03:31:44;;;;;;;4.20;1.98;;;;;;;7.20;100.00;96626.50;5107823;28;20494;-78
2024/04/03 03:34:10;;;;;;;3.40;1.80;;;;;;;7.25;100.00;96631.78;5095070;28;20397;-77
2024/04/03 03:36:36;;;;;;;4.28;1.73;;;;;;;7.24;100.00;96630.19;5094802;28;20451;-78
2024/04/03 03:39:02;;;;;;;3.85;1.85;;;;;;;7.23;100.00;96618.09;5103608;28;20390;-78
2024/04/03 03:41:29;;;;;;;4.63;1.58;;;;;;;7.25;100.00;96609.94;5094872;28;20428;-78
2024/04/03 03:43:56;;;;;;;3.03;1.63;;;;;;;7.26;100.00;96612.34;5094108;28;20514;-78
2024/04/03 03:46:22;;;;;;;5.60;2.20;;;;;;;7.26;100.00;96601.00;5094384;28;20390;-78
2024/04/03 03:54:17;;;;;;;6.05;1.77;;;;;;;7.41;100.00;96613.53;5094118;28;20411;-78
2024/04/03 03:56:45;;;;;;;5.63;2.28;;;;;;;7.45;100.00;96612.75;5102878;28;20395;-78
2024/04/03 03:59:11;;;;;;;3.35;1.58;;;;;;;7.40;100.00;96607.44;5094635;28;20394;-78
2024/04/03 04:01:37;;;;;;;2.85;1.45;;;;;;;7.34;100.00;96608.47;5111736;28;20465;-77
2024/04/03 04:04:03;;;;;;;5.10;2.10;;;;;;;7.30;100.00;96609.97;5114943;28;20392;-77
2024/04/03 04:06:30;;;;;;;3.60;1.70;;;;;;;7.28;100.00;96607.63;5113956;28;20877;-77
2024/04/03 04:08:56;;;;;;;3.28;1.70;;;;;;;7.29;100.00;96611.81;5105426;28;20405;-77
2024/04/03 04:11:22;;;;;;;3.47;1.67;;;;;;;7.30;100.00;96604.72;5114063;28;20392;-76
2024/04/03 04:13:50;;;;;;;6.75;1.58;;;;;;;7.26;100.00;96606.28;5105589;28;20422;-77
2024/04/03 04:16:17;;;;;;;3.08;1.80;;;;;;;7.21;100.00;96604.41;5097097;28;20927;-77
2024/04/03 04:18:44;;;;;;;2.65;1.50;;;;;;;7.21;100.00;96606.22;5097682;28;20474;-77
2024/04/03 04:21:11;;;;;;;4.18;1.60;;;;;;;7.18;100.00;96604.88;5092880;28;20777;-78
2024/04/03 04:23:37;;;;;;;4.10;1.60;;;;;;;7.18;100.00;96602.25;5101527;28;20834;-77
2024/04/03 04:26:04;;;;;;;4.70;1.75;;;;;;;7.17;100.00;96607.75;5093008;28;20386;-78
2024/04/03 04:28:30;;;;;;;4.55;1.75;;;;;;;7.18;100.00;96614.59;5093034;28;20433;-77
2024/04/03 04:31:02;;;;;;;4.35;1.73;;;;;;;7.19;100.00;96608.31;5110866;28;20944;-78
2024/04/03 04:33:28;;;;;;;3.20;1.80;;;;;;;7.20;100.00;96609.91;5107839;28;20406;-77
2024/04/03 04:35:55;;;;;;;3.65;1.70;;;;;;;7.25;100.00;96612.56;5092653;28;20805;-77
2024/04/03 04:38:22;;;;;;;4.18;1.80;;;;;;;7.29;100.00;96606.56;5106227;28;20396;-77
2024/04/03 04:40:55;;;;;;;5.10;2.10;;;;;;;7.35;100.00;96608.22;5096476;28;20418;-77
2024/04/03 04:43:22;;;;;;;1.70;1.58;;;;;;;7.35;100.00;96604.78;5087706;28;20461;-77
2024/04/03 04:45:55;;;;;;;3.30;1.50;;;;;;;7.37;100.00;96603.47;5095101;28;20399;-77
2024/04/03 04:48:24;;;;;;;5.20;1.70;;;;;;;7.34;100.00;96600.56;5108449;28;20430;-77
2024/04/03 04:50:53;;;;;;;2.95;1.40;;;;;;;7.34;100.00;96598.72;5093109;28;20877;-77
2024/04/03 04:53:20;;;;;;;5.53;2.10;;;;;;;7.38;100.00;96593.75;5114312;28;20388;-77
2024/04/03 04:55:56;;;;;;;3.40;2.10;;;;;;;7.40;100.00;96596.91;5113096;28;20399;-77
2024/04/03 04:58:23;;;;;;;5.35;1.52;;;;;;;7.43;100.00;96606.16;5085691;28;20883;-76
2024/04/03 05:00:59;;;;;;;4.85;1.40;;;;;;;7.47;100.00;96608.03;5093773;28;20390;-78
2024/04/03 05:03:26;;;;;;;3.30;1.70;;;;;;;7.45;100.00;96607.50;5097391;28;20912;-78
2024/04/03 05:05:52;;;;;;;3.33;1.50;;;;;;;7.43;100.00;96611.44;5093221;28;20397;-77
2024/04/03 05:08:19;;;;;;;3.50;1.83;;;;;;;7.46;100.00;96616.19;5103893;28;20509;-77
2024/04/03 05:10:49;;;;;;;5.47;1.70;;;;;;;7.49;100.00;96610.44;5104298;28;20389;-77
2024/04/03 05:13:15;;;;;;;3.00;1.63;;;;;;;7.44;100.00;96616.47;5112775;28;20396;-77
2024/04/03 05:15:41;;;;;;;3.25;1.60;;;;;;;7.41;100.00;96616.94;5104901;28;20395;-78
2024/04/03 05:18:07;;;;;;;2.65;1.50;;;;;;;7.41;100.00;96619.56;5093894;28;20394;-78
2024/04/03 05:20:35;;;;;;;4.57;1.85;;;;;;;7.39;100.00;96629.56;5092945;28;20404;-77
2024/04/03 05:23:01;;;;;;;5.00;1.70;;;;;;;7.39;100.00;96632.19;5094506;28;20430;-78
2024/04/03 05:25:27;;;;;;;2.75;1.60;;;;;;;7.37;100.00;96627.16;5099502;28;20398;-77
2024/04/03 05:27:53;;;;;;;2.10;1.70;;;;;;;7.41;100.00;96629.31;5092620;28;20393;-78
2024/04/03 05:30:20;;;;;;;4.03;1.63;;;;;;;7.46;100.00;96634.63;5092992;28;20398;-78
2024/04/03 05:32:46;;;;;;;2.22;1.42;;;;;;;7.44;100.00;96628.81;5100560;28;20773;-78
2024/04/03 05:35:14;;;;;;;3.33;1.52;;;;;;;7.48;100.00;96630.69;5092768;28;20943;-78
2024/04/03 05:37:43;;;;;;;3.83;1.63;;;;;;;7.50;100.00;96631.25;5092687;28;20887;-78
2024/04/03 05:40:09;;;;;;;1.90;1.50;;;;;;;7.61;100.00;96632.91;5101235;28;20427;-77
2024/04/03 05:42:35;;;;;;;2.50;2.00;;;;;;;7.61;100.00;96627.66;5092382;28;20843;-78
2024/04/03 05:45:02;;;;;;;3.42;1.30;;;;;;;7.62;100.00;96629.25;5102310;28;20396;-78
2024/04/03 05:47:28;;;;;;;2.90;1.45;;;;;;;7.69;100.00;96634.31;5095543;28;20398;-78
2024/04/03 05:49:54;;;;;;;1.40;1.30;;;;;;;7.82;100.00;96636.50;5092351;28;20390;-78
2024/04/03 05:52:21;;;;;;;3.03;1.52;;;;;;;7.85;100.00;96632.59;5091903;28;20493;-78
2024/04/03 05:54:49;;;;;;;5.88;1.63;;;;;;;7.84;100.00;96633.63;5092062;28;20398;-77
2024/04/03 05:57:17;;;;;;;3.25;1.42;;;;;;;7.89;100.00;96634.50;5096163;28;20396;-78
2024/04/03 05:59:43;;;;;;;2.22;1.45;;;;;;;7.87;100.00;96641.03;5105627;28;20394;-77
2024/04/03 06:02:10;;;;;;;3.88;1.45;;;;;;;7.88;100.00;96640.81;5095016;28;20908;-77
2024/04/03 06:04:38;;;;;;;4.35;1.50;;;;;;;7.90;100.00;96643.97;5097746;28;20425;-77
2024/04/03 06:07:05;;;;;;;2.50;1.30;;;;;;;7.75;100.00;96654.38;5092473;28;20404;-77
2024/04/03 06:09:32;;;;;;;5.57;2.05;;;;;;;7.69;100.00;96655.38;5094509;28;20751;-78
2024/04/03 06:11:59;;;;;;;3.63;1.88;;;;;;;7.63;100.00;96661.66;5094774;28;20412;-78
2024/04/03 06:14:25;;;;;;;3.33;1.60;;;;;;;7.65;100.00;96663.00;5094796;28;20409;-78
2024/04/03 06:16:52;;;;;;;1.80;1.50;;;;;;;7.59;100.00;96671.09;5109508;28;20396;-80
2024/04/03 06:19:18;;;;;;;2.47;1.48;;;;;;;7.57;100.00;96663.44;5106621;28;20770;-76
2024/04/03 06:21:44;;;;;;;3.30;1.83;;;;;;;7.52;100.00;96666.00;5099280;28;20410;-77
2024/04/03 06:24:10;;;;;;;3.08;1.60;;;;;;;7.56;100.00;96671.59;5091616;28;20469;-77
2024/04/03 06:26:37;;;;;;;5.50;2.10;;;;;;;7.50;100.00;96670.75;5090854;28;20390;-76
2024/04/03 06:29:04;;;;;;;2.00;1.45;;;;;;;7.49;100.00;96663.09;5091873;28;20476;-78
2024/04/03 06:31:31;;;;;;;2.00;1.33;;;;;;;7.49;100.00;96669.16;5091644;28;20405;-78
2024/04/03 06:33:59;;;;;;;1.75;1.40;;;;;;;7.48;100.00;96656.25;5093943;28;20394;-77
2024/04/03 06:36:26;;;;;;;5.13;1.70;;;;;;;7.49;100.00;96663.09;5093741;28;20416;-78
2024/04/03 06:38:53;;;;;;;2.27;1.57;;;;;;;7.54;100.00;96665.78;5090819;28;20925;-78
2024/04/03 06:41:19;;;;;;;2.78;1.60;;;;;;;7.53;100.00;96662.34;5090560;28;20390;-78
2024/04/03 06:43:45;;;;;;;2.80;1.63;;;;;;;7.56;100.00;96668.97;5093793;28;20466;-78
2024/04/03 06:46:13;;;;;;;2.70;1.92;;;;;;;7.58;100.00;96683.47;5086210;28;20412;-78
2024/04/03 06:48:40;;;;;;;6.32;2.20;;;;;;;7.57;100.00;96678.44;5090906;28;20886;-77
2024/04/03 06:51:06;;;;;;;3.17;1.70;;;;;;;7.54;100.00;96684.22;5091153;28;20397;-77
2024/04/03 06:53:32;;;;;;;6.30;1.70;;;;;;;7.57;100.00;96696.88;5091837;28;20479;-77
2024/04/03 06:56:00;;;;;;;2.75;1.60;;;;;;;7.61;100.00;96701.41;5099198;28;20960;-78
2024/04/03 06:58:27;;;;;;;2.80;1.95;;;;;;;7.58;100.00;96704.53;5076647;28;20917;-76
2024/04/03 07:00:54;;;;;;;2.25;1.80;;;;;;;7.66;100.00;96713.84;5096031;28;20400;-78
2024/04/03 07:03:21;;;;;;;2.00;1.80;;;;;;;7.70;100.00;96720.97;5094763;28;20416;-78
2024/04/03 07:05:47;;;;;;;2.33;1.60;;;;;;;7.69;100.00;96727.28;5104811;28;20422;-77
2024/04/03 07:08:14;;;;;;;4.68;2.05;;;;;;;7.76;100.00;96719.97;5100743;28;20394;-78
2024/04/03 07:10:40;;;;;;;1.95;1.67;;;;;;;7.76;100.00;96716.56;5093843;28;20394;-76
2024/04/03 07:13:07;;;;;;;3.85;1.77;;;;;;;7.81;100.00;96724.53;5093833;28;20471;-76
2024/04/03 07:15:34;;;;;;;3.80;1.85;;;;;;;7.86;100.00;96727.19;5095995;28;20425;-75
2024/04/03 07:18:00;;;;;;;2.85;1.80;;;;;;;7.86;100.00;96723.78;5102309;28;20449;-77
2024/04/03 07:20:29;;;;;;;4.28;1.60;;;;;;;7.86;100.00;96719.28;5098771;28;20387;-76
2024/04/03 07:22:56;;;;;;;2.72;1.73;;;;;;;7.90;100.00;96722.22;5094034;28;20409;-78
2024/04/03 07:25:22;;;;;;;3.60;1.90;;;;;;;7.93;100.00;96722.53;5088842;28;20410;-78
2024/04/03 07:27:50;;;;;;;6.78;1.75;;;;;;;8.04;100.00;96721.53;5093930;28;20937;-77
2024/04/03 07:30:17;;;;;;;3.30;1.73;;;;;;;8.03;100.00;96725.25;5097999;28;20399;-76
2024/04/03 07:32:43;;;;;;;4.40;1.70;;;;;;;8.09;100.00;96723.44;5095350;28;20524;-76
2024/04/03 07:35:09;;;;;;;1.40;1.30;;;;;;;8.13;100.00;96719.25;5096516;28;20926;-76
2024/04/03 07:37:38;;;;;;;2.38;1.50;;;;;;;8.15;100.00;96719.81;5094023;28;20429;-76
2024/04/03 07:40:08;;;;;;;4.80;1.87;;;;;;;8.20;100.00;96721.66;5105187;28;20684;-77
2024/04/03 07:42:36;;;;;;;1.47;1.30;;;;;;;8.22;100.00;96712.47;5099938;28;20410;-77
2024/04/03 07:45:04;;;;;;;1.70;1.45;;;;;;;8.24;100.00;96712.22;5096368;28;20489;-76
2024/04/03 07:47:30;;;;;;;1.40;1.30;;;;;;;8.28;100.00;96708.81;5111299;28;20402;-76
2024/04/03 07:49:57;;;;;;;1.92;1.25;;;;;;;8.35;100.00;96716.53;5104651;28;20410;-78
2024/04/03 07:52:23;;;;;;;1.42;1.27;;;;;;;8.39;100.00;96707.91;5093779;28;20467;-77
2024/04/03 07:54:50;;;;;;;4.35;1.58;;;;;;;8.40;100.00;96701.56;5091818;28;20494;-78
2024/04/03 07:57:17;;;;;;;1.85;1.35;;;;;;;8.50;100.00;96706.91;5093421;28;20742;-77
2024/04/03 07:59:44;;;;;;;3.25;1.50;;;;;;;8.54;100.00;96704.56;5094267;28;20493;-78
2024/04/03 08:02:10;;;;;;;1.80;1.20;;;;;;;8.63;100.00;96705.69;5099813;28;20415;-77
2024/04/03 08:04:36;;;;;;;2.08;1.20;;;;;;;8.75;100.00;96708.91;5094035;28;20469;-78
2024/04/03 08:07:03;;;;;;;1.30;1.20;;;;;;;8.84;100.00;96693.38;5101113;28;20402;-79
2024/04/03 08:09:31;;;;;;;1.52;1.15;;;;;;;8.97;100.00;96702.69;5099265;28;20887;-78
2024/04/03 08:11:59;;;;;;;1.70;1.10;;;;;;;9.07;100.00;96689.53;5108617;28;20795;-78
2024/04/03 08:14:26;;;;;;;1.45;1.05;;;;;;;9.18;100.00;96689.28;5090437;28;20409;-79
2024/04/03 08:16:52;;;;;;;1.27;1.15;;;;;;;9.35;100.00;96689.09;5104780;28;20392;-79
2024/04/03 08:19:19;;;;;;;1.53;1.20;;;;;;;9.52;100.00;96687.03;5096624;28;20422;-79
2024/04/03 08:21:46;;;;;;;1.52;0.98;;;;;;;9.73;100.00;96685.22;5097699;28;20491;-79
2024/04/03 08:24:12;;;;;;;1.02;0.90;;;;;;;9.93;100.00;96682.59;5104596;28;20392;-81
2024/04/03 08:26:38;;;;;;;1.42;1.00;;;;;;;10.12;100.00;96674.94;5107919;28;20447;-79
2024/04/03 08:29:06;;;;;;;1.65;0.90;;;;;;;10.30;100.00;96678.94;5099042;28;20394;-81
2024/04/03 08:31:32;;;;;;;1.38;0.90;;;;;;;10.38;100.00;96662.50;5098956;28;20398;-79
2024/04/03 08:33:58;;;;;;;1.77;1.20;;;;;;;10.50;100.00;96663.03;5096802;28;20476;-81
2024/04/03 08:36:25;;;;;;;2.33;1.25;;;;;;;10.63;100.00;96641.28;5091793;28;20430;-77
2024/04/03 08:38:52;;;;;;;2.95;1.00;;;;;;;10.62;100.00;96644.19;5093571;28;20917;-79
2024/04/03 08:41:18;;;;;;;3.13;1.07;;;;;;;10.66;100.00;96637.31;5093617;28;20794;-79
2024/04/03 08:43:47;;;;;;;1.88;1.10;;;;;;;10.83;100.00;96632.47;5094879;28;20414;-79
2024/04/03 08:46:15;;;;;;;2.08;1.23;;;;;;;10.99;100.00;96631.34;5096898;28;20422;-76
2024/04/03 08:48:41;;;;;;;1.05;0.95;;;;;;;10.99;100.00;96626.06;5096951;28;20404;-79
2024/04/03 08:51:08;;;;;;;1.38;1.10;;;;;;;11.17;100.00;96628.09;5106787;28;20875;-79
2024/04/03 08:53:35;;;;;;;1.73;1.00;;;;;;;11.18;100.00;96627.03;5107960;28;20388;-79
2024/04/03 08:56:01;;;;;;;1.95;1.10;;;;;;;11.22;100.00;96627.28;5097166;28;20608;-78
2024/04/03 08:58:27;;;;;;;4.10;1.00;;;;;;;11.17;100.00;96622.81;5100182;28;20404;-78
2024/04/03 09:00:53;;;;;;;1.80;0.85;;;;;;;11.29;100.00;96616.38;5114757;28;20385;-79
2024/04/03 09:03:21;;;;;;;1.45;0.98;;;;;;;11.28;100.00;96617.47;5096196;28;20449;-79
2024/04/03 09:05:52;;;;;;;0.80;0.80;;;;;;;11.27;100.00;96613.22;5096166;28;20398;-79
2024/04/03 09:08:19;;;;;;;1.40;0.90;;;;;;;11.31;100.00;96616.91;5076231;28;20388;-78
2024/04/03 09:10:56;;;;;;;1.55;0.90;;;;;;;11.37;100.00;96621.88;5091123;28;20424;-78
2024/04/03 09:13:22;;;;;;;2.30;1.55;;;;;;;11.48;100.00;96619.97;5094850;28;20459;-78
2024/04/03 09:15:52;;;;;;;1.40;1.00;;;;;;;11.65;100.00;96612.44;5093990;28;20432;-79
2024/04/03 09:18:20;;;;;;;1.40;1.00;;;;;;;11.83;100.00;96606.47;5106304;28;20428;-79
2024/04/03 09:20:50;;;;;;;2.90;1.10;;;;;;;12.06;100.00;96606.81;5105287;28;20397;-79
2024/04/03 09:23:17;;;;;;;1.55;1.13;;;;;;;12.46;100.00;96606.44;5107210;28;20412;-78
2024/04/03 09:25:44;;;;;;;2.10;1.02;;;;;;;12.68;100.00;96601.41;5108973;28;20397;-79
2024/04/03 09:28:11;;;;;;;1.40;0.90;;;;;;;12.88;100.00;96602.25;5104949;28;20434;-79
2024/04/03 09:30:40;;;;;;;1.60;1.02;;;;;;;13.00;100.00;96605.28;5108438;28;20392;-79
2024/04/03 09:33:07;;;;;;;1.53;0.80;;;;;;;13.37;100.00;96602.69;5106445;28;20496;-79
2024/04/03 09:35:37;;;;;;;4.93;1.30;;;;;;;13.84;100.00;96599.03;5105996;28;20398;-80
2024/04/03 09:38:04;;;;;;;2.70;1.00;;;;;;;13.96;100.00;96593.28;5109532;28;20392;-79
2024/04/03 09:40:33;;;;;;;1.60;0.80;;;;;;;14.58;100.00;96589.28;5104923;28;20864;-80
2024/04/03 09:43:03;;;;;;;3.38;1.35;;;;;;;15.27;100.00;96587.28;5099170;28;20470;-80
2024/04/03 09:45:30;;;;;;;1.70;0.90;;;;;;;15.29;100.00;96597.66;5099226;28;20390;-80
2024/04/03 09:48:01;;;;;;;1.70;0.75;;;;;;;15.64;100.00;96594.22;5107156;28;20397;-81
2024/04/03 09:50:36;;;;;;;2.08;0.70;;;;;;;15.67;100.00;96592.84;5106636;28;20395;-78
2024/04/03 09:53:05;;;;;;;1.02;0.63;;;;;;;15.64;100.00;96585.44;5100473;28;20412;-79
2024/04/03 09:55:33;;;;;;;5.93;0.85;;;;;;;15.09;100.00;96582.91;5095531;28;20394;-77
2024/04/03 09:58:01;;;;;;;2.03;0.70;;;;;;;14.53;100.00;96588.56;5095582;28;20405;-79
2024/04/03 10:00:27;;;;;;;1.83;1.00;;;;;;;14.07;100.00;96585.88;5110578;28;20396;-78
2024/04/03 10:02:53;;;;;;;1.80;0.80;;;;;;;13.88;100.00;96584.09;5098671;28;20421;-80
2024/04/03 10:05:21;;;;;;;0.80;0.80;;;;;;;13.52;100.00;96585.72;5096196;28;20390;-82
2024/04/03 10:08:02;;;;;;;5.22;0.82;;;;;;;13.46;100.00;96576.22;5077872;28;20406;-79
2024/04/03 10:10:29;;;;;;;1.13;0.77;;;;;;;13.65;100.00;96582.31;5078950;28;20883;-80
2024/04/03 10:12:58;;;;;;;0.85;0.80;;;;;;;13.43;100.00;96590.13;5081081;28;20409;-79
2024/04/03 10:15:27;;;;;;;2.55;0.90;;;;;;;13.52;100.00;96589.19;5087623;28;20406;-81
2024/04/03 10:17:53;;;;;;;4.00;1.13;;;;;;;13.63;100.00;96587.13;5111322;28;20398;-83
2024/04/03 10:20:36;;;;;;;1.00;0.80;;;;;;;13.62;100.00;96595.41;5102931;28;20402;-81
2024/04/03 10:23:07;;;;;;;2.65;0.80;;;;;;;13.61;100.00;96599.94;5106943;28;20743;-81
2024/04/03 10:25:35;;;;;;;2.17;1.00;;;;;;;13.20;100.00;96589.09;5103210;28;20410;-80
2024/04/03 10:28:02;;;;;;;1.60;1.10;;;;;;;12.59;100.00;96600.44;5099265;28;20386;-81
2024/04/03 10:30:28;;;;;;;1.50;1.00;;;;;;;12.20;100.00;96600.59;5100493;28;20483;-80
2024/04/03 10:32:54;;;;;;;1.25;1.10;;;;;;;12.10;100.00;96611.31;5100152;28;20417;-80
2024/04/03 10:35:21;;;;;;;1.58;1.00;;;;;;;11.73;100.00;96614.47;5098883;28;20394;-81
2024/04/03 10:37:47;;;;;;;1.05;1.05;;;;;;;11.47;100.00;96621.03;5103082;28;20439;-78
2024/04/03 10:40:16;;;;;;;1.73;1.10;;;;;;;11.53;100.00;96610.13;5102997;28;20398;-79
2024/04/03 10:42:42;;;;;;;0.80;0.80;;;;;;;11.44;100.00;96610.97;5096413;28;20600;-79
2024/04/03 10:45:08;;;;;;;1.30;0.90;;;;;;;11.53;100.00;96611.97;5102596;28;20447;-79
2024/04/03 10:47:35;;;;;;;0.80;0.80;;;;;;;11.69;100.00;96610.00;5096224;28;20434;-79
2024/04/03 10:50:01;;;;;;;0.82;0.82;;;;;;;11.92;100.00;96602.16;5097865;28;20471;-76
2024/04/03 10:52:29;;;;;;;1.20;0.80;;;;;;;12.16;100.00;96604.09;5098148;28;20396;-80
2024/04/03 10:54:56;;;;;;;1.60;0.80;;;;;;;12.56;100.00;96593.03;5105619;28;20412;-81
2024/04/03 10:57:23;;;;;;;2.05;0.70;;;;;;;12.82;100.00;96612.13;5107961;28;20400;-78
2024/04/03 10:59:49;;;;;;;2.50;0.90;;;;;;;13.13;100.00;96601.97;5095446;28;20397;-76
2024/04/03 11:02:16;;;;;;;0.73;0.73;;;;;;;13.15;100.00;96615.75;5106935;28;20506;-77
2024/04/03 11:04:44;;;;;;;1.60;0.90;;;;;;;13.30;100.00;96606.78;5115091;28;20764;-74
2024/04/03 11:07:14;;;;;;;1.17;0.82;;;;;;;13.17;100.00;96610.94;5095027;28;20398;-75
2024/04/03 11:09:43;;;;;;;0.80;0.75;;;;;;;13.23;100.00;96604.47;5098170;28;20396;-75
2024/04/03 11:12:11;;;;;;;2.50;0.90;;;;;;;13.12;100.00;96616.28;5118084;28;20491;-79
2024/04/03 11:14:38;;;;;;;2.55;0.95;;;;;;;13.07;100.00;96592.44;5103605;28;20441;-78
2024/04/03 11:17:07;;;;;;;1.85;0.80;;;;;;;12.89;100.00;96601.16;5095893;28;20778;-79
2024/04/03 11:19:34;;;;;;;1.20;0.95;;;;;;;12.72;100.00;96609.59;5086789;28;20487;-77
2024/04/03 11:22:00;;;;;;;1.17;1.00;;;;;;;12.62;100.00;96601.75;5102723;28;20577;-76
2024/04/03 11:24:26;;;;;;;1.00;0.90;;;;;;;12.59;100.00;96595.13;5108925;28;20449;-77
2024/04/03 11:26:52;;;;;;;1.52;0.70;;;;;;;12.86;100.00;96604.38;5111290;28;20787;-77
2024/04/03 11:29:32;;;;;;;1.70;0.90;;;;;;;12.95;100.00;96616.75;5110863;28;20392;-78
2024/04/03 11:32:00;;;;;;;1.20;1.00;;;;;;;12.75;100.00;96617.00;5105984;28;20418;-77
2024/04/03 11:34:28;;;;;;;0.98;0.85;;;;;;;12.58;100.00;96603.38;5103422;28;20727;-77
2024/04/03 11:36:56;;;;;;;1.10;0.90;;;;;;;12.24;100.00;96620.19;5098359;28;20429;-78